Relevés horaires Matro (Suisse)


Relevés horaires à Matro - Jeudi 25 Déc. 2014
Heure UTC1 Température [°C] Vent [km/h] Hum. [%] Pres.4 [hPa] Visi. [Km] Nébu. [octa] Préc.5 [mm] Cond.
2m. Res. Ros. Dir.2 Vit. Moy. Raf.3
23:00 -7.7 -18.3 -15.2 NNO 46.3 46.3 61.1 55 850(0.1/3h) -- -- -- --
22:00 -6.9 -16.5 -14.0 NNO 38.9 50.0 68.5 57 850(-0.3/3h) -- -- -- --
21:00 -6.0 -15.8 -13.9 NO 44.4 50.0 72.2 53 850(0.0/3h) -- -- -- --
20:00 -5.1 -14.9 -14.5 NNO 48.2 48.2 72.2 47 850(0.1/3h) -- -- -- --
19:00 -4.2 -12.7 -11.8 NO 37.0 46.3 59.3 55 850(-0.3/3h) -- -- -- --
18:00 -3.0 -11.6 -12.2 NO 42.6 46.3 66.7 49 850(-0.2/3h) -- -- -- --
17:00 -2.6 -9.6 -11.6 NO 27.8 35.2 53.7 50 850(-0.4/3h) -- -- -- --
16:00 -2.3 -9.8 -11.1 NO 33.3 46.3 66.7 51 850(-0.4/3h) -- -- -- --
15:00 -1.4 -9.2 -11.9 NNO 38.9 38.9 59.3 45 850(-1.2/3h) -- -- -- --
14:00 -0.6 -7.9 -10.4 NO 37.0 37.0 51.9 47 850(-1.2/3h) -- -- -- --
13:00 0.1 -6.1 -9.5 NNO 27.8 29.6 42.6 48 850(-1.4/3h) -- -- -- --
12:00 0.5 -4.9 -8.8 NO 22.2 27.8 37.0 50 850(-0.7/3h) -- -- -- --
11:00 0.3 -2.8 -8.4 NO 9.3 14.8 25.9 52 850(-0.3/3h) -- -- -- --
10:00 0.6 -4 -7.4 NO 16.7 18.5 35.2 55 850(0.5/3h) -- -- -- --
09:00 0.6 -4.8 -7.2 NO 22.2 27.8 37.0 56 850(0.3/3h) -- -- -- --
08:00 0.2 -4.8 -7.1 NO 18.5 27.8 37.0 58 850(0.3/3h) -- -- -- --
07:00 0.1 -6.1 -6.7 NNO 27.8 27.8 37.0 60 850(0.0/3h) -- -- -- --
06:00 0.3 -5.8 -7.2 NNO 27.8 33.3 48.2 57 850(-0.1/3h) -- -- -- --
05:00 0.2 -6.4 -6.8 NNO 31.5 31.5 42.6 59 850(-0.5/3h) -- -- -- --
04:00 0.4 -5.7 -7.5 NNO 27.8 29.6 38.9 55 850(-0.5/3h) -- -- -- --
03:00 0.4 -5.5 -8.2 NNO 25.9 31.5 40.7 52 850(-0.7/3h) -- -- -- --
02:00 0.5 -5.4 -11.1 NO 25.9 25.9 33.3 41 850(-0.4/3h) -- -- -- --
01:00 0.4 -5 -15.2 NNO 22.2 24.1 31.5 30 850(-0.4/3h) -- -- -- --
00:00 0.1 -5.7 -17.7 NO 24.1 25.9 33.3 25 850(0.1/3h) -- -- -- --

1 Coordinated Universal Time. Actuellement il est 13:00 locale et 11:00 UTC.

2 Le vent souffle depuis la direction indiquée vers la direction oposée.

3 Les rafales max. sont disponible 40 min après l'heure du relevé.

4 Pour les stations d'altitude (plus de 600m) le géopotentiel du niveau le plus proche de la pression obligatoire est indiqué.

5 Les stations disposant d'un diffuseur peuvent indiquer "trace". Cela signifie que des précipitations ont touchés le sol mais que la quantité est inférieure à 0.1 mm.

Copyright

Les données affichées sur cette page sont la propriété exclusive de Météo Suisse.

Récapitulatif de la journée
Température [°C] Vent [km/h] Ensoleillement4 [h] Precipitations totale5 [mm] Pression [Hpa]
Min1 Max.2 Moy.3 Max. Min Max.
-0.4 0.8 34.2 72.2 6 h 48 min 0 850.0 850.0

1 Température minimale relevée entre 18:00 UTC la veille et 18:00 UTC le jour donné.

2 Température maximale relevée entre 06:00 UTC le jour donné et 06:00 UTC le lendemain.

3 Vent moyen de la journée basé sur les relevés horaires.

4 Ensoleillement en heures relevé entre 06:00 UTC la veille et 06:00 UTC le jour donné.

5 Précipitations totales tombées entre 06:00 UTC la jour donné et 06:00 UTC le lendemain.

Graphiques horaires